Time;durP1;ratioP1;P1;durP2;ratioP2;P2;SDS_P1;SDS_P2;PMS_P1;PMS_P2;Temp;Humidity;BMP_temperature;BMP_pressure;BME280_temperature;BME280_humidity;BME280_pressure;Samples;Min_cycle;Max_cycle;Signal;HPM_P1;HPM_P2
2022/05/13 00:01:09;;;;;;;4.20;2.97;;;;;;;15.58;100.00;96555.34;5033458;28;20471;-75
2022/05/13 00:03:37;;;;;;;3.73;3.23;;;;;;;15.48;100.00;96559.34;5051702;28;20435;-75
2022/05/13 00:06:05;;;;;;;7.30;2.97;;;;;;;15.35;100.00;96536.66;5051527;28;20433;-75
2022/05/13 00:08:33;;;;;;;3.13;2.90;;;;;;;15.49;100.00;96554.81;5033782;28;20480;-75
2022/05/13 00:11:01;;;;;;;4.07;2.80;;;;;;;15.47;100.00;96557.81;5033389;28;20453;-75
2022/05/13 00:13:29;;;;;;;5.10;3.00;;;;;;;15.37;100.00;96553.84;5033431;28;20495;-75
2022/05/13 00:15:56;;;;;;;3.00;2.80;;;;;;;15.25;100.00;96532.69;5033593;28;20433;-75
2022/05/13 00:18:23;;;;;;;4.47;2.23;;;;;;;15.25;100.00;96548.66;5033505;28;20437;-75
2022/05/13 00:20:50;;;;;;;4.00;2.90;;;;;;;15.36;100.00;96546.22;5016864;28;20875;-75
2022/05/13 00:23:18;;;;;;;8.80;2.90;;;;;;;15.37;100.00;96558.41;5033347;28;20444;-75
2022/05/13 00:25:45;;;;;;;6.57;2.93;;;;;;;15.12;100.00;96517.94;5016811;28;20453;-75
2022/05/13 00:28:13;;;;;;;4.10;2.70;;;;;;;15.21;100.00;96541.69;5033108;28;20532;-75
2022/05/13 00:30:45;;;;;;;5.30;3.57;;;;;;;15.33;100.00;96549.56;5051088;28;20890;-75
2022/05/13 00:33:12;;;;;;;3.20;2.90;;;;;;;15.09;100.00;96537.31;5033268;28;20967;-75
2022/05/13 00:35:39;;;;;;;6.53;3.03;;;;;;;15.19;100.00;96546.59;5033536;28;20925;-75
2022/05/13 00:38:06;;;;;;;6.93;2.60;;;;;;;15.24;100.00;96551.69;5036874;28;20480;-74
2022/05/13 00:40:34;;;;;;;6.83;3.07;;;;;;;15.26;100.00;96552.88;5050936;28;20484;-75
2022/05/13 00:43:06;;;;;;;5.10;2.57;;;;;;;15.24;100.00;96549.00;5033370;28;20437;-75
2022/05/13 00:45:34;;;;;;;5.03;2.90;;;;;;;14.92;100.00;96519.06;5051068;28;20425;-75
2022/05/13 00:48:02;;;;;;;4.50;2.93;;;;;;;15.08;100.00;96554.38;5050830;28;20435;-75
2022/05/13 00:50:34;;;;;;;4.23;2.27;;;;;;;14.89;100.00;96519.75;5050914;28;20566;-75
2022/05/13 00:53:03;;;;;;;4.83;2.80;;;;;;;15.08;100.00;96549.06;5033228;28;20835;-75
2022/05/13 00:55:41;;;;;;;4.77;3.10;;;;;;;15.24;100.00;96546.34;5051015;28;20478;-75
2022/05/13 00:58:12;;;;;;;3.13;2.93;;;;;;;15.17;100.00;96552.28;5033038;28;20515;-75
2022/05/13 01:00:40;;;;;;;5.53;2.60;;;;;;;14.96;100.00;96520.69;5016463;28;20457;-75
2022/05/13 01:03:07;;;;;;;6.10;2.90;;;;;;;14.96;100.00;96514.59;5032820;28;20527;-75
2022/05/13 01:05:35;;;;;;;6.27;2.80;;;;;;;15.07;100.00;96529.63;5033426;28;20433;-75
2022/05/13 01:08:04;;;;;;;3.37;3.07;;;;;;;15.22;100.00;96546.66;5032798;28;20437;-75
2022/05/13 01:10:33;;;;;;;3.67;3.00;;;;;;;15.30;100.00;96553.69;5050552;28;20490;-75
2022/05/13 01:13:07;;;;;;;2.53;2.33;;;;;;;15.26;100.00;96558.19;5032898;28;21011;-75
2022/05/13 01:15:40;;;;;;;3.80;2.87;;;;;;;15.12;100.00;96544.59;5050735;28;20486;-75
2022/05/13 01:18:08;;;;;;;3.40;3.20;;;;;;;15.09;100.00;96553.28;5050770;28;20443;-75
2022/05/13 01:20:48;;;;;;;6.60;3.40;;;;;;;15.04;100.00;96548.22;5019503;28;20475;-75
2022/05/13 01:23:23;;;;;;;4.47;3.37;;;;;;;14.95;100.00;96529.00;5050259;28;20984;-75
2022/05/13 01:25:54;;;;;;;3.87;3.10;;;;;;;14.94;100.00;96530.88;5036978;28;20437;-75
2022/05/13 01:28:26;;;;;;;3.30;3.00;;;;;;;14.82;100.00;96556.84;5036438;28;20536;-75
2022/05/13 01:30:56;;;;;;;8.53;3.30;;;;;;;14.67;100.00;96527.28;5036501;28;20464;-75
2022/05/13 01:33:24;;;;;;;3.37;2.93;;;;;;;14.92;100.00;96557.09;5036673;28;20432;-75
2022/05/13 01:35:53;;;;;;;4.90;3.70;;;;;;;14.84;100.00;96528.78;5036385;28;20469;-75
2022/05/13 01:38:23;;;;;;;5.73;3.43;;;;;;;14.97;100.00;96534.78;5036382;28;20475;-75
2022/05/13 01:40:50;;;;;;;6.80;3.03;;;;;;;15.26;100.00;96563.50;5053991;28;20453;-74
2022/05/13 01:43:18;;;;;;;5.13;4.20;;;;;;;15.05;100.00;96515.91;5036297;28;20972;-75
2022/05/13 01:45:45;;;;;;;6.07;3.60;;;;;;;14.85;100.00;96517.03;5054096;28;20486;-75
2022/05/13 01:48:12;;;;;;;4.97;3.50;;;;;;;15.15;100.00;96554.53;5036223;28;20540;-75
2022/05/13 01:50:39;;;;;;;6.70;3.07;;;;;;;14.93;100.00;96557.88;5035970;28;20468;-75
2022/05/13 01:53:07;;;;;;;3.73;3.43;;;;;;;14.77;100.00;96507.34;5036164;28;20451;-75
2022/05/13 01:55:34;;;;;;;3.97;3.67;;;;;;;15.29;100.00;96556.72;5035980;28;20869;-75
2022/05/13 01:58:02;;;;;;;3.90;3.60;;;;;;;15.37;100.00;96559.19;5035995;28;20869;-75
2022/05/13 02:00:28;;;;;;;4.30;3.80;;;;;;;15.15;100.00;96533.22;5052426;28;20496;-75
2022/05/13 02:05:40;;;;;;;4.80;3.60;;;;;;;15.01;100.00;96523.06;5054034;28;20823;-75
2022/05/13 02:08:07;;;;;;;4.77;3.60;;;;;;;15.22;100.00;96549.34;5019738;28;20538;-75
2022/05/13 02:10:34;;;;;;;4.77;3.67;;;;;;;15.00;100.00;96536.72;5052387;28;20457;-75
2022/05/13 02:13:01;;;;;;;3.50;3.10;;;;;;;15.21;100.00;96550.47;5035636;28;20788;-75
2022/05/13 02:15:28;;;;;;;6.97;3.57;;;;;;;14.90;100.00;96547.91;5035511;28;20436;-75
2022/05/13 02:17:54;;;;;;;4.53;3.13;;;;;;;14.59;100.00;96516.84;5035505;28;20469;-75
2022/05/13 02:20:21;;;;;;;9.30;4.27;;;;;;;15.02;100.00;96542.47;5035359;28;20472;-75
2022/05/13 02:22:48;;;;;;;6.20;3.70;;;;;;;14.96;100.00;96510.03;5035415;28;20505;-75
2022/05/13 02:25:15;;;;;;;5.13;3.60;;;;;;;15.04;100.00;96530.34;5035556;28;20972;-75
2022/05/13 02:27:41;;;;;;;10.03;4.37;;;;;;;14.93;100.00;96518.69;5035339;28;20453;-75
2022/05/13 02:30:09;;;;;;;5.63;3.30;;;;;;;14.70;100.00;96515.97;5035275;28;21033;-75
2022/05/13 02:32:36;;;;;;;5.87;3.87;;;;;;;14.71;100.00;96527.38;5034517;28;20457;-75
2022/05/13 02:35:04;;;;;;;7.67;3.57;;;;;;;14.77;100.00;96518.75;5034296;28;20979;-75
2022/05/13 02:37:30;;;;;;;4.30;3.30;;;;;;;14.84;100.00;96533.34;5035229;28;20476;-75
2022/05/13 02:39:57;;;;;;;7.07;3.33;;;;;;;14.83;100.00;96532.56;5035092;28;20805;-75
2022/05/13 02:42:24;;;;;;;4.40;3.30;;;;;;;14.72;100.00;96512.94;5035111;28;20477;-75
2022/05/13 02:44:51;;;;;;;3.80;3.40;;;;;;;14.79;100.00;96508.53;5018857;28;20461;-75
2022/05/13 02:47:18;;;;;;;3.60;3.30;;;;;;;14.81;100.00;96544.66;5035016;28;20479;-75
2022/05/13 02:49:44;;;;;;;3.70;3.40;;;;;;;14.87;100.00;96535.31;5035076;28;20475;-75
2022/05/13 02:52:12;;;;;;;7.33;4.23;;;;;;;14.84;100.00;96520.03;5035167;28;20511;-75
2022/05/13 02:54:38;;;;;;;4.97;3.90;;;;;;;14.82;100.00;96516.94;5034832;28;20527;-75
2022/05/13 02:57:05;;;;;;;8.77;3.70;;;;;;;14.95;100.00;96529.75;5035365;28;20858;-75
2022/05/13 02:59:32;;;;;;;5.03;3.97;;;;;;;14.84;100.00;96491.53;5052745;28;20441;-75
2022/05/13 03:01:59;;;;;;;4.40;3.60;;;;;;;15.07;100.00;96512.88;5034744;28;20969;-75
2022/05/13 03:04:26;;;;;;;3.00;2.80;;;;;;;14.93;100.00;96507.28;5034834;28;20536;-75
2022/05/13 03:06:53;;;;;;;4.03;3.67;;;;;;;14.84;100.00;96504.06;5052750;28;20542;-75
2022/05/13 03:09:20;;;;;;;3.57;3.27;;;;;;;15.01;100.00;96538.25;5034519;28;20453;-75
2022/05/13 03:11:46;;;;;;;4.20;3.60;;;;;;;14.78;100.00;96506.97;5051352;28;20477;-75
2022/05/13 03:14:13;;;;;;;3.53;3.20;;;;;;;14.59;100.00;96491.00;5051331;28;20544;-75
2022/05/13 03:16:40;;;;;;;4.33;3.03;;;;;;;14.77;100.00;96537.38;5034572;28;20445;-75
2022/05/13 03:19:06;;;;;;;4.93;3.80;;;;;;;14.68;100.00;96496.88;5052635;28;20425;-75
2022/05/13 03:21:33;;;;;;;4.10;3.70;;;;;;;14.80;100.00;96519.94;5034286;28;20468;-75
2022/05/13 03:24:00;;;;;;;5.60;3.20;;;;;;;14.88;100.00;96523.53;5034303;28;20436;-75
2022/05/13 03:26:26;;;;;;;3.93;3.53;;;;;;;14.70;100.00;96521.28;5052482;28;20432;-75
2022/05/13 03:28:53;;;;;;;6.90;4.10;;;;;;;14.71;100.00;96522.03;5034465;28;21030;-75
2022/05/13 03:31:20;;;;;;;5.53;4.10;;;;;;;14.85;100.00;96534.88;5034116;28;20464;-75
2022/05/13 03:33:47;;;;;;;3.70;3.40;;;;;;;14.62;100.00;96506.25;5034245;28;20443;-74
2022/05/13 03:36:14;;;;;;;4.27;3.60;;;;;;;14.89;100.00;96527.75;5017723;28;20434;-75
2022/05/13 03:38:42;;;;;;;4.27;3.70;;;;;;;14.92;100.00;96527.03;5034283;28;20536;-75
2022/05/13 03:41:10;;;;;;;3.73;3.43;;;;;;;14.84;100.00;96520.81;5034170;28;20477;-75
2022/05/13 03:43:37;;;;;;;4.30;3.47;;;;;;;14.79;100.00;96532.47;5034063;28;20517;-75
2022/05/13 03:46:03;;;;;;;4.90;3.43;;;;;;;14.61;100.00;96517.25;5033759;28;20850;-75
2022/05/13 03:48:30;;;;;;;4.83;3.67;;;;;;;14.66;100.00;96528.41;5033825;28;20476;-75
2022/05/13 03:50:57;;;;;;;3.67;3.43;;;;;;;14.55;100.00;96515.97;5033896;28;20563;-75
2022/05/13 03:53:23;;;;;;;4.80;3.10;;;;;;;14.37;100.00;96500.34;5034008;28;20441;-75
2022/05/13 03:55:50;;;;;;;3.90;3.50;;;;;;;13.98;100.00;96502.09;5033786;28;20552;-75
2022/05/13 03:58:17;;;;;;;7.97;3.90;;;;;;;13.95;100.00;96531.28;5033717;28;20445;-75
2022/05/13 04:00:45;;;;;;;4.20;3.70;;;;;;;13.92;100.00;96537.28;5034188;28;20531;-75
2022/05/13 04:03:13;;;;;;;4.17;3.77;;;;;;;14.10;100.00;96536.59;5017777;28;20465;-75
2022/05/13 04:11:10;;;;;;;4.80;3.67;;;;;;;14.43;100.00;96522.16;5050618;28;20515;-75
2022/05/13 04:16:22;;;;;;;4.03;3.73;;;;;;;14.02;100.00;96484.38;5051468;28;20449;-74
2022/05/13 04:18:51;;;;;;;5.30;3.97;;;;;;;14.36;100.00;96536.06;5033490;28;20437;-74
2022/05/13 04:21:26;;;;;;;7.33;3.70;;;;;;;14.48;100.00;96519.25;5034987;28;20497;-75
2022/05/13 04:23:54;;;;;;;11.83;4.23;;;;;;;14.67;100.00;96539.81;5051676;28;20482;-74
2022/05/13 04:26:22;;;;;;;13.17;4.50;;;;;;;14.71;100.00;96541.44;5034538;28;20532;-74
2022/05/13 04:28:51;;;;;;;7.93;6.13;;;;;;;14.62;100.00;96543.53;5037746;28;20922;-75
2022/05/13 04:31:23;;;;;;;4.17;3.87;;;;;;;14.68;100.00;96558.09;5052278;28;20527;-74
2022/05/13 04:33:51;;;;;;;4.70;4.20;;;;;;;14.71;100.00;96548.66;5051503;28;20929;-75
2022/05/13 04:36:18;;;;;;;4.30;3.80;;;;;;;14.72;100.00;96558.19;5033356;28;20442;-75
2022/05/13 04:38:45;;;;;;;4.53;4.13;;;;;;;14.77;100.00;96560.56;5033558;28;20940;-75
2022/05/13 04:43:59;;;;;;;6.47;4.13;;;;;;;14.93;100.00;96541.88;5051072;28;20491;-74
2022/05/13 04:46:26;;;;;;;4.30;3.93;;;;;;;15.03;100.00;96539.47;5033244;28;20787;-74
2022/05/13 04:48:53;;;;;;;5.30;4.80;;;;;;;14.60;100.00;96497.09;5033051;28;21037;-74
2022/05/13 04:51:21;;;;;;;5.87;4.03;;;;;;;14.99;100.00;96554.59;5050884;28;20945;-74
2022/05/13 04:53:50;;;;;;;5.03;4.63;;;;;;;15.02;100.00;96559.22;5033071;28;20449;-74
2022/05/13 04:56:19;;;;;;;6.63;5.17;;;;;;;14.97;100.00;96562.16;5033202;28;20428;-75
2022/05/13 04:58:46;;;;;;;5.80;4.97;;;;;;;15.03;100.00;96562.66;5035076;28;20445;-74
2022/05/13 05:01:15;;;;;;;8.30;5.50;;;;;;;14.76;100.00;96522.53;5037182;28;20551;-74
2022/05/13 05:03:42;;;;;;;5.33;4.77;;;;;;;14.99;100.00;96551.94;5036830;28;20468;-74
2022/05/13 05:06:10;;;;;;;5.40;4.90;;;;;;;15.14;100.00;96557.56;5037671;28;20429;-75
2022/05/13 05:08:38;;;;;;;5.47;4.97;;;;;;;15.38;100.00;96558.06;5036955;28;20454;-75
2022/05/13 05:11:07;;;;;;;5.27;4.87;;;;;;;15.29;100.00;96538.06;5037266;28;20883;-75
2022/05/13 05:13:37;;;;;;;6.23;5.27;;;;;;;15.39;100.00;96580.13;5055071;28;20425;-74
2022/05/13 05:16:07;;;;;;;5.03;4.40;;;;;;;15.10;100.00;96543.41;5054828;28;20456;-76
2022/05/13 05:18:40;;;;;;;5.73;4.50;;;;;;;15.25;100.00;96577.19;5036438;28;20445;-75
2022/05/13 05:21:09;;;;;;;6.17;4.20;;;;;;;15.24;100.00;96568.44;5016775;28;20521;-75
2022/05/13 05:23:39;;;;;;;7.50;5.00;;;;;;;14.92;100.00;96527.03;5036388;28;20553;-75
2022/05/13 05:26:07;;;;;;;6.27;5.10;;;;;;;15.19;100.00;96563.34;5036604;28;20986;-74
2022/05/13 05:28:37;;;;;;;4.73;4.33;;;;;;;15.32;100.00;96567.44;5036679;28;20461;-74
2022/05/13 05:31:06;;;;;;;6.00;5.10;;;;;;;15.45;100.00;96585.94;5036960;28;20445;-75
2022/05/13 05:33:32;;;;;;;7.63;5.60;;;;;;;15.53;100.00;96593.75;5036660;28;20441;-74
2022/05/13 05:35:59;;;;;;;7.00;5.20;;;;;;;15.26;100.00;96562.75;5020281;28;20875;-75
2022/05/13 05:38:26;;;;;;;6.50;5.30;;;;;;;15.16;100.00;96548.09;5054455;28;20425;-74
2022/05/13 05:40:53;;;;;;;8.13;5.47;;;;;;;15.30;100.00;96564.34;5036862;28;20896;-74
2022/05/13 05:43:21;;;;;;;5.77;5.17;;;;;;;15.54;100.00;96600.63;5036722;28;20480;-74
2022/05/13 05:45:47;;;;;;;5.80;5.30;;;;;;;15.61;100.00;96605.31;5044340;28;20472;-75
2022/05/13 05:48:21;;;;;;;7.90;5.17;;;;;;;15.58;100.00;96600.69;5036534;28;20447;-76
2022/05/13 05:50:54;;;;;;;5.40;4.93;;;;;;;15.68;100.00;96608.16;5043408;28;20964;-76
2022/05/13 05:58:57;;;;;;;8.97;4.60;;;;;;;15.52;100.00;96584.22;5054360;28;20453;-77
2022/05/13 06:01:24;;;;;;;10.00;5.00;;;;;;;15.56;100.00;96597.59;5036012;28;20464;-75
2022/05/13 06:03:51;;;;;;;5.20;4.53;;;;;;;15.41;100.00;96587.78;5053832;28;20464;-78
2022/05/13 06:06:17;;;;;;;7.40;5.70;;;;;;;15.66;100.00;96600.50;5054375;28;20420;-77
2022/05/13 06:08:44;;;;;;;6.23;5.00;;;;;;;15.77;100.00;96605.28;5035859;28;20513;-78
2022/05/13 06:11:11;;;;;;;5.13;4.60;;;;;;;15.82;100.00;96613.75;5035826;28;20458;-78
2022/05/13 06:13:38;;;;;;;7.23;5.13;;;;;;;15.55;100.00;96583.50;5035772;28;20554;-77
2022/05/13 06:16:07;;;;;;;6.30;4.63;;;;;;;15.64;100.00;96583.31;5035841;28;20882;-76
2022/05/13 06:18:35;;;;;;;5.83;5.23;;;;;;;15.83;100.00;96588.63;5023529;28;20473;-76
2022/05/13 06:21:03;;;;;;;5.67;4.90;;;;;;;16.32;100.00;96625.31;5035748;28;20468;-77
2022/05/13 06:23:29;;;;;;;5.70;5.07;;;;;;;16.58;100.00;96619.25;5035530;28;20557;-77
2022/05/13 06:25:56;;;;;;;6.33;5.50;;;;;;;16.51;100.00;96595.09;5035998;28;20464;-76
2022/05/13 06:28:23;;;;;;;5.23;4.73;;;;;;;16.75;100.00;96585.97;5039589;28;20452;-76
2022/05/13 06:30:50;;;;;;;5.03;4.50;;;;;;;16.94;100.00;96628.56;5035659;28;20883;-77
2022/05/13 06:33:16;;;;;;;4.40;4.00;;;;;;;17.23;100.00;96631.66;5053486;28;20520;-76
2022/05/13 06:35:43;;;;;;;7.70;4.80;;;;;;;16.75;100.00;96599.31;5035424;28;20444;-76
2022/05/13 06:38:22;;;;;;;6.27;4.40;;;;;;;16.88;100.00;96594.53;5038579;28;20433;-76
2022/05/13 06:40:49;;;;;;;6.10;4.23;;;;;;;16.82;100.00;96581.47;5043174;28;20924;-76
2022/05/13 06:43:16;;;;;;;5.40;3.83;;;;;;;17.06;100.00;96609.66;5035220;28;20544;-77
2022/05/13 06:45:43;;;;;;;4.07;3.63;;;;;;;16.80;100.00;96599.00;5035339;28;20456;-77
2022/05/13 06:48:11;;;;;;;10.77;4.50;;;;;;;17.01;100.00;96626.03;5053029;28;20791;-77
2022/05/13 06:50:38;;;;;;;6.63;4.33;;;;;;;17.04;100.00;96629.88;5035156;28;20540;-76
2022/05/13 06:53:05;;;;;;;4.60;3.43;;;;;;;16.79;100.00;96602.78;5035110;28;20469;-77
2022/05/13 06:55:32;;;;;;;6.30;3.40;;;;;;;16.82;100.00;96618.88;5042326;28;20441;-76
2022/05/13 06:57:58;;;;;;;8.30;3.93;;;;;;;16.98;100.00;96637.44;5052847;28;20482;-77
2022/05/13 07:00:25;;;;;;;6.13;4.13;;;;;;;16.79;100.00;96603.56;5035324;28;20441;-76
2022/05/13 07:02:52;;;;;;;8.80;3.13;;;;;;;17.26;100.00;96637.06;5039721;28;20489;-77
2022/05/13 07:05:20;;;;;;;10.00;3.27;;;;;;;17.20;100.00;96597.63;5035138;28;20468;-77
2022/05/13 07:07:48;;;;;;;5.97;3.10;;;;;;;17.44;100.00;96638.06;5052717;28;20938;-77
2022/05/13 07:10:15;;;;;;;8.07;3.43;;;;;;;17.31;100.00;96602.00;5052576;28;20513;-76
2022/05/13 07:12:43;;;;;;;3.20;2.90;;;;;;;17.20;100.00;96632.38;5034762;28;20786;-77
2022/05/13 07:15:12;;;;;;;3.37;2.63;;;;;;;17.51;100.00;96637.38;5052677;28;20433;-76
2022/05/13 07:17:39;;;;;;;6.50;2.70;;;;;;;17.46;100.00;96639.59;5034944;28;20459;-77
2022/05/13 07:20:07;;;;;;;4.93;3.20;;;;;;;17.33;100.00;96612.31;5039630;28;20985;-76
2022/05/13 07:22:34;;;;;;;3.70;2.63;;;;;;;17.37;100.00;96629.19;5034496;28;20466;-76
2022/05/13 07:25:01;;;;;;;9.83;3.80;;;;;;;17.58;100.00;96609.94;5039078;28;20452;-76
2022/05/13 07:27:28;;;;;;;4.43;3.00;;;;;;;18.01;100.00;96608.53;5034474;28;20430;-77
2022/05/13 07:29:54;;;;;;;4.70;2.80;;;;;;;18.24;100.00;96613.72;5052373;28;20996;-77
2022/05/13 07:32:27;;;;;;;3.57;3.00;;;;;;;17.74;100.00;96602.50;5034268;28;20837;-76
2022/05/13 07:34:53;;;;;;;4.47;3.00;;;;;;;18.08;99.51;96648.00;5034423;28;21048;-76
2022/05/13 07:37:20;;;;;;;3.47;2.57;;;;;;;17.46;100.00;96637.69;5034350;28;20554;-77
2022/05/13 07:42:32;;;;;;;7.93;2.83;;;;;;;18.60;98.21;96620.16;5034379;28;20433;-75
2022/05/13 07:44:59;;;;;;;4.70;2.80;;;;;;;18.16;94.91;96644.22;5037569;28;20429;-75
2022/05/13 07:47:26;;;;;;;4.80;3.00;;;;;;;18.56;90.95;96644.25;5041100;28;20441;-75
2022/05/13 07:49:53;;;;;;;3.90;2.80;;;;;;;18.26;88.81;96614.13;5052182;28;20472;-75
2022/05/13 07:52:19;;;;;;;5.53;2.80;;;;;;;18.35;88.85;96645.97;5034147;28;20465;-75
2022/05/13 07:54:46;;;;;;;5.93;2.80;;;;;;;18.22;89.68;96624.81;5033887;28;20437;-75
2022/05/13 07:57:13;;;;;;;2.87;2.60;;;;;;;17.82;88.70;96612.16;5040170;28;20440;-75
2022/05/13 08:02:25;;;;;;;3.13;2.37;;;;;;;18.73;85.30;96629.47;5036739;28;20556;-75
2022/05/13 08:04:52;;;;;;;4.37;2.20;;;;;;;17.86;82.71;96604.16;5033856;28;20495;-75
2022/05/13 08:07:18;;;;;;;4.10;2.30;;;;;;;18.03;82.18;96643.75;5051548;28;20472;-75
2022/05/13 08:09:45;;;;;;;9.30;2.43;;;;;;;17.59;80.87;96604.22;5033920;28;20448;-75
2022/05/13 08:12:12;;;;;;;5.17;2.60;;;;;;;17.92;81.78;96637.50;5033747;28;20457;-75
2022/05/13 08:14:39;;;;;;;5.00;2.53;;;;;;;18.05;82.23;96646.06;5051705;28;20956;-76
2022/05/13 08:17:06;;;;;;;6.03;2.60;;;;;;;18.66;81.64;96647.41;5033756;28;20491;-76
2022/05/13 08:19:32;;;;;;;10.33;4.30;;;;;;;17.95;80.17;96569.88;5033557;28;20493;-76
2022/05/13 08:22:00;;;;;;;5.10;2.37;;;;;;;18.36;78.71;96652.84;5052833;28;20507;-76
2022/05/13 08:24:26;;;;;;;9.70;3.00;;;;;;;18.50;77.25;96631.56;5033330;28;20475;-76
2022/05/13 08:26:54;;;;;;;5.60;2.87;;;;;;;18.43;77.22;96621.56;5033418;28;20436;-76
2022/05/13 08:29:20;;;;;;;6.50;3.07;;;;;;;18.47;74.21;96614.31;5033536;28;20453;-76
2022/05/13 08:31:47;;;;;;;3.50;2.77;;;;;;;18.27;74.26;96640.53;5036264;28;20941;-76
2022/05/13 08:34:16;;;;;;;10.13;2.27;;;;;;;18.85;74.72;96631.88;5049666;28;20928;-76
2022/05/13 08:36:43;;;;;;;2.90;2.67;;;;;;;18.93;73.73;96654.09;5033392;28;20464;-76
2022/05/13 08:39:10;;;;;;;3.00;2.60;;;;;;;19.11;72.45;96663.06;5033429;28;20500;-76
2022/05/13 08:42:00;;;;;;;4.63;2.20;;;;;;;18.73;72.18;96624.13;5048748;28;20469;-76
2022/05/13 08:44:26;;;;;;;3.40;2.50;;;;;;;18.68;72.21;96648.56;5051146;28;20543;-76
2022/05/13 08:47:41;;;;;;;4.03;3.13;;;;;;;18.51;72.77;96603.63;5051085;28;20426;-76
2022/05/13 08:50:13;;;;;;;4.97;2.63;;;;;;;18.63;72.40;96611.38;4961026;28;20826;-76
2022/05/13 08:53:07;;;;;;;5.70;3.20;;;;;;;19.19;73.34;96653.13;4971922;28;20491;-76
2022/05/13 08:55:42;;;;;;;6.73;3.47;;;;;;;19.00;72.62;96658.75;4965236;28;20464;-76
2022/05/13 08:58:15;;;;;;;3.83;2.90;;;;;;;19.42;71.92;96664.38;4957104;28;20995;-76
2022/05/13 09:00:50;;;;;;;7.37;2.53;;;;;;;18.50;69.30;96651.06;4981394;28;20559;-76
2022/05/13 09:03:51;;;;;;;8.60;3.10;;;;;;;19.04;69.88;96654.19;4979444;28;20468;-76
2022/05/13 09:06:37;;;;;;;7.50;4.10;;;;;;;18.98;67.37;96640.38;4949872;28;20436;-76
2022/05/13 09:09:06;;;;;;;5.10;2.40;;;;;;;18.98;66.97;96643.06;4966744;28;20444;-76
2022/05/13 09:11:42;;;;;;;3.63;2.97;;;;;;;19.21;66.28;96642.78;4980803;28;20456;-76
2022/05/13 09:14:38;;;;;;;5.27;2.73;;;;;;;18.97;67.69;96646.88;4973051;28;20475;-76
2022/05/13 09:17:12;;;;;;;3.80;2.80;;;;;;;19.32;66.16;96654.34;4989085;28;20436;-76
2022/05/13 09:19:57;;;;;;;3.27;2.63;;;;;;;19.99;66.95;96645.84;4985817;28;20567;-77
2022/05/13 09:22:32;;;;;;;4.67;2.93;;;;;;;20.02;65.34;96637.03;5029398;28;20458;-76
2022/05/13 09:24:59;;;;;;;2.83;2.60;;;;;;;19.69;62.25;96629.28;5033224;28;20459;-76
2022/05/13 09:27:45;;;;;;;5.80;2.60;;;;;;;19.28;61.48;96596.50;5019211;28;20460;-76
2022/05/13 09:30:17;;;;;;;4.43;2.70;;;;;;;18.97;60.94;96643.44;5035219;28;20516;-76
2022/05/13 09:32:44;;;;;;;4.77;2.73;;;;;;;19.00;60.75;96591.75;5016338;28;21033;-76
2022/05/13 09:35:17;;;;;;;4.83;2.87;;;;;;;19.38;60.93;96638.69;5050630;28;20495;-76
2022/05/13 09:37:45;;;;;;;4.00;3.40;;;;;;;19.24;60.55;96593.81;5033148;28;20520;-76
2022/05/13 09:40:18;;;;;;;6.87;2.73;;;;;;;19.78;59.70;96643.13;5046167;28;20429;-77
2022/05/13 09:42:48;;;;;;;5.13;2.70;;;;;;;18.89;59.34;96578.28;5032848;28;20434;-76
2022/05/13 09:45:19;;;;;;;6.37;2.37;;;;;;;19.33;59.50;96642.50;5053526;28;20436;-76
2022/05/13 09:48:04;;;;;;;3.87;2.70;;;;;;;19.04;60.45;96627.38;5054281;28;20422;-76
2022/05/13 09:50:38;;;;;;;3.60;3.00;;;;;;;19.32;59.82;96640.19;5036563;28;20855;-76
2022/05/13 09:53:29;;;;;;;5.50;3.10;;;;;;;19.58;59.39;96629.22;5050460;28;20508;-76
2022/05/13 09:55:59;;;;;;;11.03;3.70;;;;;;;18.94;60.76;96630.75;5025498;28;20437;-76
2022/05/13 09:58:36;;;;;;;4.37;2.97;;;;;;;19.42;60.40;96642.94;5036192;28;20476;-76
2022/05/13 10:01:11;;;;;;;3.87;3.40;;;;;;;19.12;61.23;96624.38;5036122;28;20463;-77
2022/05/13 10:03:39;;;;;;;4.60;2.90;;;;;;;18.96;60.33;96601.66;5043379;28;20484;-76
2022/05/13 10:06:09;;;;;;;4.10;3.27;;;;;;;19.30;61.51;96619.09;5035946;28;20524;-76
2022/05/13 10:08:57;;;;;;;3.80;2.83;;;;;;;19.31;62.38;96620.66;5053884;28;20483;-77
2022/05/13 10:14:34;;;;;;;3.07;2.67;;;;;;;19.35;60.26;96618.75;5053805;28;20509;-77
2022/05/13 10:17:12;;;;;;;8.13;3.37;;;;;;;20.08;59.81;96621.34;5035780;28;20441;-76
2022/05/13 10:19:48;;;;;;;4.60;3.40;;;;;;;19.59;59.03;96603.94;5035933;28;20448;-76
2022/05/13 10:22:50;;;;;;;14.10;3.73;;;;;;;19.70;59.16;96625.44;5038561;28;20461;-76
2022/05/13 10:25:25;;;;;;;3.67;2.80;;;;;;;19.75;57.98;96600.91;5040132;28;20484;-76
2022/05/13 10:28:04;;;;;;;4.13;3.00;;;;;;;19.76;58.84;96624.72;5035876;28;20860;-76
2022/05/13 10:30:41;;;;;;;4.23;2.53;;;;;;;20.40;58.76;96621.38;5038835;28;20468;-76
2022/05/13 10:33:10;;;;;;;4.27;2.73;;;;;;;20.25;56.65;96638.63;5035427;28;20491;-77
2022/05/13 10:35:52;;;;;;;5.43;2.60;;;;;;;20.42;54.78;96647.88;5035715;28;20436;-77
2022/05/13 10:38:29;;;;;;;9.27;2.87;;;;;;;19.37;56.96;96605.75;5053263;28;20790;-76
2022/05/13 10:41:09;;;;;;;4.20;2.63;;;;;;;20.16;56.52;96619.41;5053336;28;20445;-76
2022/05/13 10:43:42;;;;;;;4.90;2.37;;;;;;;20.41;56.26;96630.19;5035603;28;20453;-76
2022/05/13 10:46:35;;;;;;;4.60;2.50;;;;;;;20.43;53.75;96644.03;5035243;28;20447;-76
2022/05/13 10:49:30;;;;;;;3.57;2.40;;;;;;;20.71;52.52;96636.00;5021472;28;20495;-76
2022/05/13 10:52:18;;;;;;;4.90;2.57;;;;;;;20.42;52.58;96616.41;5051887;28;20463;-77
2022/05/13 10:55:04;;;;;;;3.27;2.97;;;;;;;20.50;54.08;96650.19;5035123;28;20463;-76
2022/05/13 10:57:50;;;;;;;6.70;2.73;;;;;;;20.69;54.67;96634.84;5052341;28;20433;-76
2022/05/13 11:00:30;;;;;;;3.10;2.03;;;;;;;19.99;53.66;96629.75;5035179;28;20524;-76
2022/05/13 11:03:44;;;;;;;2.40;2.00;;;;;;;20.42;54.10;96634.44;5022462;28;20532;-76
2022/05/13 11:06:24;;;;;;;5.90;2.30;;;;;;;20.46;52.17;96636.00;5008801;28;20460;-76
2022/05/13 11:09:11;;;;;;;2.20;1.63;;;;;;;20.32;51.57;96628.66;5035080;28;20842;-76
2022/05/13 11:11:43;;;;;;;3.67;2.37;;;;;;;20.42;51.38;96654.03;5034712;28;20457;-76
2022/05/13 11:14:33;;;;;;;4.37;2.30;;;;;;;20.87;50.34;96635.63;5034811;28;20445;-76
2022/05/13 11:17:21;;;;;;;3.00;2.40;;;;;;;20.71;51.46;96637.94;5034877;28;20445;-77
2022/05/13 11:20:11;;;;;;;4.50;2.13;;;;;;;20.60;51.29;96624.50;5034812;28;20480;-76
2022/05/13 11:22:45;;;;;;;3.70;1.97;;;;;;;20.82;50.92;96644.06;5029559;28;20429;-76
2022/05/13 11:25:54;;;;;;;4.07;2.73;;;;;;;21.04;49.06;96632.13;5034377;28;20464;-76
2022/05/13 11:28:49;;;;;;;6.37;2.20;;;;;;;21.22;49.33;96624.78;5034392;28;20528;-76
2022/05/13 11:31:34;;;;;;;4.20;2.20;;;;;;;21.34;49.26;96631.69;5052179;28;20548;-77
2022/05/13 11:34:22;;;;;;;3.70;2.03;;;;;;;21.95;48.40;96632.25;5039582;28;20469;-77
2022/05/13 11:37:07;;;;;;;3.03;2.70;;;;;;;21.17;48.22;96638.63;5018210;28;20995;-76
2022/05/13 11:39:58;;;;;;;5.03;2.40;;;;;;;20.78;49.50;96630.63;5034448;28;20451;-76
2022/05/13 11:43:18;;;;;;;6.60;2.87;;;;;;;20.42;50.13;96621.00;5034173;28;20455;-76
2022/05/13 11:46:15;;;;;;;4.13;3.00;;;;;;;21.11;49.67;96628.69;5016740;28;20494;-76
2022/05/13 11:48:44;;;;;;;2.97;2.07;;;;;;;20.32;49.35;96611.78;5023380;28;20457;-76
2022/05/13 11:51:18;;;;;;;5.73;2.70;;;;;;;21.48;49.27;96607.44;5033922;28;20876;-77
2022/05/13 11:53:49;;;;;;;5.17;1.80;;;;;;;21.15;48.93;96619.44;5033956;28;20528;-76
2022/05/13 11:56:32;;;;;;;3.33;2.10;;;;;;;21.56;48.41;96631.66;5051921;28;20480;-76
2022/05/13 11:59:10;;;;;;;7.83;3.27;;;;;;;21.70;48.00;96629.66;5033756;28;20429;-77
2022/05/13 12:01:43;;;;;;;3.17;2.00;;;;;;;21.84;45.97;96624.22;5034211;28;20545;-77
2022/05/13 12:04:13;;;;;;;7.40;2.50;;;;;;;22.12;46.26;96627.94;5050351;28;20467;-77
2022/05/13 12:06:49;;;;;;;8.03;2.40;;;;;;;21.83;45.96;96625.38;5013868;28;20442;-77
2022/05/13 12:09:16;;;;;;;4.67;2.63;;;;;;;21.56;45.04;96631.66;5019824;28;20429;-76
2022/05/13 12:11:46;;;;;;;4.50;2.43;;;;;;;21.33;45.57;96630.16;5033974;28;20471;-76
2022/05/13 12:14:30;;;;;;;7.47;2.60;;;;;;;21.47;43.58;96613.97;5033624;28;20453;-76